Time;durP1;ratioP1;P1;durP2;ratioP2;P2;SDS_P1;SDS_P2;PMS_P1;PMS_P2;Temp;Humidity;BMP_temperature;BMP_pressure;BME280_temperature;BME280_humidity;BME280_pressure;Samples;Min_cycle;Max_cycle;Signal;HPM_P1;HPM_P2
2024/03/20 00:00:53;;;;;;;17.80;9.30;;;;;;;3.53;65.69;99694.65;106828;1254;97948;-79
2024/03/20 00:03:41;;;;;;;15.50;9.00;;;;;;;3.50;65.57;99703.16;105464;1256;109526;-79
2024/03/20 00:06:08;;;;;;;17.00;9.30;;;;;;;3.49;65.57;99703.40;105484;1254;98047;-79
2024/03/20 00:08:36;;;;;;;18.70;9.70;;;;;;;3.47;65.47;99701.00;105660;1258;98047;-80
2024/03/20 00:11:03;;;;;;;18.80;8.90;;;;;;;3.44;65.60;99696.89;105494;1256;110830;-79
2024/03/20 00:13:31;;;;;;;12.60;7.90;;;;;;;3.42;65.78;99697.50;105596;1252;97999;-80
2024/03/20 00:15:59;;;;;;;16.80;9.70;;;;;;;3.41;65.54;99698.23;105656;1256;107627;-79
2024/03/20 00:18:28;;;;;;;16.50;9.30;;;;;;;3.41;65.76;99697.15;106173;1256;97995;-79
2024/03/20 00:20:56;;;;;;;19.30;9.20;;;;;;;3.41;65.82;99692.43;106663;1254;97885;-78
2024/03/20 00:23:23;;;;;;;18.90;9.20;;;;;;;3.40;65.80;99691.41;106877;1256;109970;-78
2024/03/20 00:25:51;;;;;;;17.40;8.70;;;;;;;3.39;65.67;99688.47;105767;1256;97983;-79
2024/03/20 00:28:18;;;;;;;17.80;9.40;;;;;;;3.37;65.83;99688.35;105591;1253;106054;-80
2024/03/20 00:30:46;;;;;;;20.80;10.60;;;;;;;3.35;65.71;99683.34;105647;1256;97989;-80
2024/03/20 00:33:14;;;;;;;16.30;9.10;;;;;;;3.32;66.00;99686.96;105742;1256;98009;-78
2024/03/20 00:35:41;;;;;;;16.90;9.70;;;;;;;3.29;66.10;99684.58;105823;1253;111233;-79
2024/03/20 00:38:09;;;;;;;18.30;9.50;;;;;;;3.28;65.89;99684.09;105540;1253;97950;-79
2024/03/20 00:40:36;;;;;;;18.90;9.20;;;;;;;3.25;65.85;99687.14;105899;1254;105341;-79
2024/03/20 00:43:04;;;;;;;17.30;9.10;;;;;;;3.23;65.73;99681.98;106666;1257;97865;-79
2024/03/20 00:45:32;;;;;;;15.80;8.50;;;;;;;3.22;65.98;99681.85;105912;1254;97980;-79
2024/03/20 00:48:00;;;;;;;16.90;9.40;;;;;;;3.19;66.04;99682.46;105865;1253;110737;-79
2024/03/20 00:50:27;;;;;;;19.30;8.90;;;;;;;3.13;65.95;99681.41;105929;1256;98062;-79
2024/03/20 00:52:55;;;;;;;14.70;9.00;;;;;;;3.11;66.07;99684.09;105606;1253;105820;-80
2024/03/20 00:55:22;;;;;;;14.50;8.70;;;;;;;3.11;66.16;99679.55;105862;1259;96668;-79
2024/03/20 00:57:50;;;;;;;17.90;9.10;;;;;;;3.14;66.23;99680.52;105758;1256;99292;-79
2024/03/20 01:00:18;;;;;;;18.10;9.00;;;;;;;3.16;66.10;99681.48;106252;1254;110978;-79
2024/03/20 01:02:46;;;;;;;16.10;9.20;;;;;;;3.17;66.27;99678.34;106335;1256;98792;-79
2024/03/20 01:05:13;;;;;;;16.80;9.40;;;;;;;3.16;66.21;99679.06;105675;1256;107206;-79
2024/03/20 01:07:41;;;;;;;18.90;8.90;;;;;;;3.15;66.28;99676.45;105728;1254;97936;-79
2024/03/20 01:10:09;;;;;;;17.90;9.40;;;;;;;3.13;66.23;99672.30;105533;1257;97957;-78
2024/03/20 01:12:36;;;;;;;17.60;9.40;;;;;;;3.13;66.29;99670.19;105647;1256;111894;-79
2024/03/20 01:15:05;;;;;;;16.20;8.70;;;;;;;3.13;66.34;99674.41;105502;1256;98041;-80
2024/03/20 01:17:33;;;;;;;18.20;9.70;;;;;;;3.10;66.25;99678.37;105611;1256;107655;-79
2024/03/20 01:20:02;;;;;;;18.90;9.10;;;;;;;3.08;66.15;99675.27;106455;1256;98322;-79
2024/03/20 01:22:34;;;;;;;17.00;9.30;;;;;;;3.06;66.19;99671.66;106176;1256;97955;-80
2024/03/20 01:25:06;;;;;;;18.30;8.90;;;;;;;3.05;66.18;99672.05;105857;1254;110390;-77
2024/03/20 01:27:34;;;;;;;;;;;;;;;3.02;66.12;99670.54;105568;1257;98384;-79
2024/03/20 01:30:02;;;;;;;14.40;8.70;;;;;;;3.00;66.23;99672.55;105757;1254;106387;-79
2024/03/20 01:32:30;;;;;;;20.70;9.40;;;;;;;3.00;66.43;99675.17;105484;1254;98011;-79
2024/03/20 01:34:57;;;;;;;18.30;9.70;;;;;;;3.01;66.38;99674.98;105669;1259;99288;-79
2024/03/20 01:37:25;;;;;;;21.00;10.40;;;;;;;3.00;66.16;99667.48;105575;1257;111246;-79
2024/03/20 01:39:52;;;;;;;21.50;11.10;;;;;;;2.97;66.20;99667.55;106176;1257;97963;-79
2024/03/20 01:42:20;;;;;;;23.30;11.40;;;;;;;2.94;66.43;99662.23;106048;1257;107625;-79
2024/03/20 01:44:48;;;;;;;24.60;12.30;;;;;;;2.92;66.23;99658.95;105697;1259;97987;-79
2024/03/20 01:47:15;;;;;;;26.00;12.00;;;;;;;2.91;66.58;99659.50;105621;1256;98593;-80
2024/03/20 01:49:44;;;;;;;20.80;11.00;;;;;;;2.88;66.23;99661.34;105569;1257;112071;-80
2024/03/20 01:52:12;;;;;;;25.10;13.80;;;;;;;2.87;66.28;99665.06;105717;1256;97925;-79
2024/03/20 01:54:39;;;;;;;24.90;13.20;;;;;;;2.83;66.26;99665.54;105659;1254;106357;-79
2024/03/20 01:57:09;;;;;;;24.30;12.90;;;;;;;2.82;66.37;99667.16;105673;1253;98413;-79
2024/03/20 01:59:36;;;;;;;26.60;13.40;;;;;;;2.82;66.53;99666.64;106194;1256;97954;-79
2024/03/20 02:02:04;;;;;;;24.40;13.60;;;;;;;2.81;66.49;99666.65;105711;1259;112164;-79
2024/03/20 02:04:32;;;;;;;27.10;14.00;;;;;;;2.80;66.43;99669.13;105732;1256;97947;-79
2024/03/20 02:07:00;;;;;;;30.30;14.50;;;;;;;2.80;66.65;99665.65;105735;1254;107404;-79
2024/03/20 02:09:28;;;;;;;27.10;13.70;;;;;;;2.79;66.66;99662.34;105499;1257;97980;-79
2024/03/20 02:11:57;;;;;;;22.30;12.50;;;;;;;2.79;66.59;99665.34;105542;1257;97967;-77
2024/03/20 02:14:24;;;;;;;23.10;12.50;;;;;;;2.78;66.71;99661.66;105792;1256;110020;-78
2024/03/20 02:16:52;;;;;;;25.20;12.60;;;;;;;2.77;66.65;99666.94;106772;1256;99381;-79
2024/03/20 02:19:19;;;;;;;27.30;13.30;;;;;;;2.76;66.81;99665.40;105496;1257;107659;-79
2024/03/20 02:21:47;;;;;;;22.80;12.90;;;;;;;2.76;66.74;99662.61;105417;1257;98755;-81
2024/03/20 02:24:17;;;;;;;27.00;12.70;;;;;;;2.75;66.62;99662.29;105692;1254;97922;-80
2024/03/20 02:26:45;;;;;;;30.50;13.50;;;;;;;2.74;66.82;99657.23;105679;1256;111126;-79
2024/03/20 02:29:12;;;;;;;27.40;13.20;;;;;;;2.73;66.78;99659.38;105468;1257;97870;-80
2024/03/20 02:31:40;;;;;;;28.40;14.90;;;;;;;2.72;66.62;99660.97;105798;1257;107288;-79
2024/03/20 02:34:07;;;;;;;26.70;12.80;;;;;;;2.71;66.91;99659.77;106165;1256;97821;-78
2024/03/20 02:36:35;;;;;;;27.90;14.00;;;;;;;2.73;66.93;99657.44;106236;1257;97950;-79
2024/03/20 02:39:03;;;;;;;25.20;12.90;;;;;;;2.74;66.93;99654.08;105689;1254;111266;-79
2024/03/20 02:41:31;;;;;;;23.30;12.50;;;;;;;2.76;66.85;99654.72;105647;1260;98041;-80
2024/03/20 02:43:58;;;;;;;25.50;12.30;;;;;;;2.77;66.92;99657.85;105502;1254;106299;-80
2024/03/20 02:46:26;;;;;;;23.90;12.90;;;;;;;2.77;66.56;99661.36;105651;1258;97971;-80
2024/03/20 02:48:53;;;;;;;25.10;12.50;;;;;;;2.76;66.82;99664.02;105499;1257;97893;-81
2024/03/20 02:51:21;;;;;;;25.70;13.70;;;;;;;2.75;67.10;99663.33;105896;1254;111128;-80
2024/03/20 02:53:49;;;;;;;28.50;13.70;;;;;;;2.72;67.02;99671.31;106208;1256;98270;-80
2024/03/20 02:56:16;;;;;;;28.20;14.60;;;;;;;2.71;66.71;99672.73;105700;1257;107240;-79
2024/03/20 02:58:44;;;;;;;25.30;13.20;;;;;;;2.69;66.89;99668.44;105489;1256;97902;-80
2024/03/20 03:01:11;;;;;;;25.70;13.10;;;;;;;2.66;66.86;99672.91;105464;1256;97993;-79
2024/03/20 03:03:39;;;;;;;29.10;13.80;;;;;;;2.63;67.26;99677.02;105326;1260;111675;-80
2024/03/20 03:06:06;;;;;;;27.90;13.80;;;;;;;2.61;67.09;99683.92;105488;1260;98779;-80
2024/03/20 03:08:36;;;;;;;35.10;18.30;;;;;;;2.58;66.98;99684.52;105825;1254;107782;-81
2024/03/20 03:11:04;;;;;;;30.00;17.80;;;;;;;2.52;67.00;99687.83;106730;1256;97862;-81
2024/03/20 03:13:31;;;;;;;26.20;13.70;;;;;;;2.49;67.13;99689.15;105505;1257;99279;-81
2024/03/20 03:16:03;;;;;;;25.70;14.10;;;;;;;2.48;67.33;99691.28;105628;1258;111494;-80
2024/03/20 03:18:31;;;;;;;25.80;13.40;;;;;;;2.48;67.14;99690.23;105483;1256;99191;-80
2024/03/20 03:20:59;;;;;;;25.80;13.40;;;;;;;2.49;67.31;99685.31;105557;1259;107930;-80
2024/03/20 03:23:26;;;;;;;24.50;13.30;;;;;;;2.49;67.38;99681.81;105728;1254;97969;-80
2024/03/20 03:25:54;;;;;;;25.60;12.50;;;;;;;2.49;67.47;99680.56;105855;1256;97878;-79
2024/03/20 03:28:21;;;;;;;23.40;11.80;;;;;;;2.51;67.46;99682.95;106349;1253;111273;-80
2024/03/20 03:30:49;;;;;;;21.10;11.40;;;;;;;2.51;67.41;99685.23;106515;1257;97888;-80
2024/03/20 03:33:16;;;;;;;24.60;12.70;;;;;;;2.55;67.47;99688.09;105619;1267;107456;-79
2024/03/20 03:35:44;;;;;;;20.80;11.90;;;;;;;2.59;67.43;99690.29;105582;1257;99273;-79
2024/03/20 03:38:11;;;;;;;23.50;12.40;;;;;;;2.59;67.67;99681.69;105936;1256;99301;-80
2024/03/20 03:40:39;;;;;;;21.30;10.70;;;;;;;2.60;67.29;99684.46;106237;1253;111502;-80
2024/03/20 03:43:07;;;;;;;24.00;12.20;;;;;;;2.60;67.50;99689.17;105622;1256;97963;-80
2024/03/20 03:45:34;;;;;;;21.70;11.20;;;;;;;2.60;67.32;99681.84;105816;1254;107596;-79
2024/03/20 03:48:02;;;;;;;24.50;12.60;;;;;;;2.56;67.06;99680.90;105949;1256;97996;-79
2024/03/20 03:50:30;;;;;;;26.50;12.80;;;;;;;2.54;67.09;99682.00;106727;1256;97753;-80
2024/03/20 03:52:57;;;;;;;26.30;11.90;;;;;;;2.53;67.30;99678.34;105669;1257;111255;-79
2024/03/20 03:55:26;;;;;;;23.00;11.50;;;;;;;2.52;67.21;99674.54;105838;1256;97942;-80
2024/03/20 03:57:53;;;;;;;28.30;13.80;;;;;;;2.50;67.46;99678.10;105554;1260;105944;-79
2024/03/20 04:00:23;;;;;;;24.90;12.70;;;;;;;2.50;67.32;99687.02;105837;1257;97954;-79
2024/03/20 04:02:51;;;;;;;27.80;14.00;;;;;;;2.49;67.38;99689.86;105990;1254;99272;-79
2024/03/20 04:05:19;;;;;;;25.60;12.40;;;;;;;2.47;67.54;99687.29;105510;1254;111204;-79
2024/03/20 04:07:46;;;;;;;26.50;13.20;;;;;;;2.46;67.49;99685.02;106342;1256;97902;-78
2024/03/20 04:10:14;;;;;;;20.40;11.10;;;;;;;2.45;67.47;99687.33;105954;1256;106435;-80
2024/03/20 04:12:42;;;;;;;26.70;13.20;;;;;;;2.44;67.35;99684.73;105718;1257;98017;-81
2024/03/20 04:15:10;;;;;;;24.70;12.70;;;;;;;2.42;67.35;99689.18;105775;1257;97948;-80
2024/03/20 04:17:38;;;;;;;23.40;12.80;;;;;;;2.39;67.56;99687.34;105817;1254;111275;-78
2024/03/20 04:20:12;;;;;;;27.80;13.60;;;;;;;2.38;67.50;99687.02;105809;1254;98015;-81
2024/03/20 04:22:41;;;;;;;23.90;12.30;;;;;;;2.38;67.86;99683.52;105407;1259;106282;-80
2024/03/20 04:25:08;;;;;;;28.00;13.20;;;;;;;2.37;67.51;99681.98;106039;1256;98071;-80
2024/03/20 04:27:36;;;;;;;29.70;14.40;;;;;;;2.35;67.69;99687.48;106905;1254;97873;-81
2024/03/20 04:30:06;;;;;;;23.30;12.10;;;;;;;2.33;67.75;99691.17;106098;1254;110440;-79
2024/03/20 04:32:35;;;;;;;26.40;13.40;;;;;;;2.32;67.87;99694.02;105505;1259;97987;-78
2024/03/20 04:35:02;;;;;;;25.50;12.30;;;;;;;2.30;67.67;99695.45;106045;1256;107582;-79
2024/03/20 04:37:30;;;;;;;27.50;12.70;;;;;;;2.30;67.63;99693.19;106489;1253;97972;-79
2024/03/20 04:39:57;;;;;;;28.20;14.40;;;;;;;2.30;67.65;99695.30;105651;1256;98022;-77
2024/03/20 04:42:25;;;;;;;25.70;13.10;;;;;;;2.29;67.63;99692.20;105782;1254;111192;-76
2024/03/20 04:44:53;;;;;;;24.40;12.70;;;;;;;2.27;67.83;99689.98;105568;1256;97942;-78
2024/03/20 04:47:20;;;;;;;27.80;12.20;;;;;;;2.25;67.64;99691.73;105552;1257;106391;-79
2024/03/20 04:49:51;;;;;;;23.70;13.00;;;;;;;2.23;68.08;99685.52;105652;1259;97997;-79
2024/03/20 04:52:19;;;;;;;30.40;13.40;;;;;;;2.25;67.84;99684.78;105786;1257;97956;-80
2024/03/20 04:54:47;;;;;;;29.70;12.60;;;;;;;2.25;67.82;99684.95;106644;1254;111036;-80
2024/03/20 04:57:14;;;;;;;22.90;12.70;;;;;;;2.25;67.60;99687.73;105566;1256;97907;-80
2024/03/20 04:59:42;;;;;;;24.20;12.10;;;;;;;2.24;67.54;99690.56;105651;1256;106314;-79
2024/03/20 05:02:09;;;;;;;25.20;13.70;;;;;;;2.23;67.81;99696.02;105539;1257;97977;-75
2024/03/20 05:04:37;;;;;;;27.30;14.20;;;;;;;2.26;67.86;99692.96;105675;1254;98008;-76
2024/03/20 05:07:04;;;;;;;29.40;14.20;;;;;;;2.28;67.80;99695.89;105420;1257;110813;-76
2024/03/20 05:09:32;;;;;;;26.50;13.40;;;;;;;2.28;68.14;99701.31;105500;1257;97971;-80
2024/03/20 05:12:02;;;;;;;31.90;15.80;;;;;;;2.29;68.01;99705.29;106388;1254;106403;-79
2024/03/20 05:14:32;;;;;;;28.50;14.50;;;;;;;2.31;67.99;99700.71;105661;1254;98605;-78
2024/03/20 05:17:00;;;;;;;28.10;15.20;;;;;;;2.32;67.94;99702.94;105611;1252;97894;-79
2024/03/20 05:19:29;;;;;;;29.90;13.90;;;;;;;2.33;67.88;99702.94;105502;1260;110223;-79
2024/03/20 05:21:56;;;;;;;24.80;13.00;;;;;;;2.34;67.79;99709.02;108485;1256;95922;-79
2024/03/20 05:24:29;;;;;;;26.50;13.20;;;;;;;2.35;68.35;99715.29;105585;1254;107690;-78
2024/03/20 05:26:57;;;;;;;29.40;14.90;;;;;;;2.35;67.81;99718.95;105736;1257;97970;-79
2024/03/20 05:29:27;;;;;;;30.80;15.00;;;;;;;2.36;68.19;99720.34;108074;1257;97262;-79
2024/03/20 05:31:57;;;;;;;31.00;15.90;;;;;;;2.37;68.09;99719.97;106530;1256;111737;-79
2024/03/20 05:34:27;;;;;;;35.10;18.30;;;;;;;2.37;68.00;99721.00;105559;1258;97970;-79
2024/03/20 05:36:55;;;;;;;35.90;16.30;;;;;;;2.37;68.13;99720.48;105797;1266;107416;-80
2024/03/20 05:39:28;;;;;;;29.90;16.40;;;;;;;2.41;68.02;99721.95;105443;1257;98045;-79
2024/03/20 05:41:56;;;;;;;36.00;16.60;;;;;;;2.46;68.18;99723.38;106082;1256;98043;-80
2024/03/20 05:44:25;;;;;;;36.80;18.00;;;;;;;2.48;68.10;99725.41;105661;1257;111381;-79
2024/03/20 05:47:02;;;;;;;39.20;18.30;;;;;;;2.51;68.14;99728.83;105716;1266;97964;-80
2024/03/20 05:49:32;;;;;;;34.30;17.70;;;;;;;2.52;68.27;99727.58;106854;1266;108074;-80
2024/03/20 05:52:02;;;;;;;29.00;14.20;;;;;;;2.54;68.10;99727.70;105789;1256;97964;-79
2024/03/20 05:54:38;;;;;;;32.00;16.10;;;;;;;2.59;68.21;99726.70;105541;1257;98753;-81
2024/03/20 05:57:11;;;;;;;27.80;14.70;;;;;;;2.62;68.28;99728.52;105558;1259;110417;-76
2024/03/20 05:59:43;;;;;;;27.00;13.50;;;;;;;2.63;68.35;99730.96;105610;1256;97974;-80
2024/03/20 06:02:11;;;;;;;29.00;15.00;;;;;;;2.61;68.44;99734.33;106676;1252;107926;-78
2024/03/20 06:04:39;;;;;;;34.50;16.30;;;;;;;2.57;68.37;99735.50;105568;1256;97966;-70
2024/03/20 06:07:06;;;;;;;34.60;17.90;;;;;;;2.56;68.34;99737.45;108613;1254;95605;-72
2024/03/20 06:09:35;;;;;;;39.50;18.60;;;;;;;2.56;68.41;99743.05;106861;1256;111270;-74
2024/03/20 06:12:04;;;;;;;28.10;16.40;;;;;;;2.58;68.50;99741.27;105416;1266;97982;-73
2024/03/20 06:14:31;;;;;;;32.00;17.30;;;;;;;2.60;68.50;99742.08;105531;1258;106740;-73
2024/03/20 06:16:59;;;;;;;28.90;15.40;;;;;;;2.60;68.47;99738.75;105497;1256;98015;-72
2024/03/20 06:19:26;;;;;;;30.10;14.10;;;;;;;2.64;68.61;99741.27;105231;1265;99289;-74
2024/03/20 06:21:54;;;;;;;31.00;15.00;;;;;;;2.67;68.53;99738.72;105516;1254;111286;-72
2024/03/20 06:24:21;;;;;;;32.10;16.60;;;;;;;2.68;68.47;99740.44;105192;1256;98205;-74
2024/03/20 06:26:49;;;;;;;33.20;17.30;;;;;;;2.68;68.42;99744.81;105160;1270;107412;-73
2024/03/20 06:29:16;;;;;;;30.30;16.60;;;;;;;2.67;68.73;99748.15;105362;1254;98066;-73
2024/03/20 06:31:44;;;;;;;33.80;16.50;;;;;;;2.72;68.77;99748.02;105322;1255;98024;-74
2024/03/20 06:34:12;;;;;;;35.30;17.20;;;;;;;2.77;68.84;99753.32;105466;1267;110729;-74
2024/03/20 06:36:39;;;;;;;33.50;16.60;;;;;;;2.82;68.87;99750.52;105449;1256;99171;-75
2024/03/20 06:39:09;;;;;;;31.70;15.80;;;;;;;2.86;68.88;99749.70;105328;1275;107655;-73
2024/03/20 06:41:36;;;;;;;33.90;16.10;;;;;;;2.89;68.83;99748.55;105454;1258;97865;-73
2024/03/20 06:44:07;;;;;;;31.50;16.00;;;;;;;2.92;68.70;99746.89;105136;1256;98059;-72
2024/03/20 06:46:35;;;;;;;28.70;15.90;;;;;;;3.00;68.90;99747.55;105142;1261;111263;-73
2024/03/20 06:49:09;;;;;;;31.30;15.30;;;;;;;3.05;69.12;99747.38;105154;1266;98047;-74
2024/03/20 06:51:38;;;;;;;31.00;16.30;;;;;;;3.09;68.87;99749.02;105352;1266;107242;-73
2024/03/20 06:54:11;;;;;;;32.80;17.00;;;;;;;3.13;68.79;99748.70;105448;1256;98568;-73
2024/03/20 06:56:41;;;;;;;32.30;17.00;;;;;;;3.21;69.25;99752.00;105249;1257;99283;-74
2024/03/20 06:59:09;;;;;;;37.10;16.90;;;;;;;3.25;69.02;99754.14;105479;1256;111469;-75
2024/03/20 07:01:36;;;;;;;28.70;14.70;;;;;;;3.29;68.96;99757.86;105145;1257;98041;-72
2024/03/20 07:04:04;;;;;;;31.50;15.00;;;;;;;3.30;68.93;99758.69;105134;1257;106981;-73
2024/03/20 07:06:31;;;;;;;33.20;14.90;;;;;;;3.35;68.98;99754.88;105488;1266;97995;-73
2024/03/20 07:08:59;;;;;;;29.00;14.00;;;;;;;3.39;69.11;99756.33;105238;1256;98136;-73
2024/03/20 07:11:27;;;;;;;32.10;15.40;;;;;;;3.46;69.05;99762.60;105402;1256;111494;-73
2024/03/20 07:13:55;;;;;;;31.70;15.10;;;;;;;3.48;69.18;99760.73;105439;1254;98786;-73
2024/03/20 07:16:22;;;;;;;27.20;16.00;;;;;;;3.51;68.89;99762.09;105280;1267;107516;-71
2024/03/20 07:18:50;;;;;;;33.20;15.00;;;;;;;3.53;69.16;99764.98;105148;1257;97978;-75
2024/03/20 07:21:19;;;;;;;26.20;13.80;;;;;;;3.58;69.12;99766.59;105463;1257;97977;-72
2024/03/20 07:23:47;;;;;;;31.70;16.70;;;;;;;3.59;69.04;99768.31;105474;1256;111171;-74
2024/03/20 07:26:14;;;;;;;30.40;15.10;;;;;;;3.58;69.17;99767.09;105218;1257;99314;-73
2024/03/20 07:28:42;;;;;;;32.70;17.20;;;;;;;3.64;69.19;99764.98;105193;1266;106573;-73
2024/03/20 07:31:10;;;;;;;29.60;16.30;;;;;;;3.70;69.36;99769.00;105189;1254;98056;-72
2024/03/20 07:33:37;;;;;;;29.30;14.10;;;;;;;3.73;69.16;99769.75;105428;1258;97979;-74
2024/03/20 07:36:05;;;;;;;29.50;14.30;;;;;;;3.75;69.06;99773.58;105170;1257;111089;-74
2024/03/20 07:38:32;;;;;;;29.20;14.60;;;;;;;3.77;69.25;99772.46;105265;1257;98024;-73
2024/03/20 07:41:00;;;;;;;35.50;17.70;;;;;;;3.80;69.33;99772.88;105536;1256;108126;-73
2024/03/20 07:43:27;;;;;;;35.50;18.30;;;;;;;3.84;69.20;99769.24;105145;1256;98015;-73
2024/03/20 07:45:56;;;;;;;26.80;14.40;;;;;;;3.88;69.19;99773.31;105390;1254;98339;-76
2024/03/20 07:48:24;;;;;;;29.80;15.50;;;;;;;3.94;69.19;99773.48;105214;1257;110275;-73
2024/03/20 07:50:54;;;;;;;30.50;17.90;;;;;;;3.93;69.22;99768.58;105492;1256;97900;-73
2024/03/20 07:53:22;;;;;;;27.60;15.40;;;;;;;3.96;69.25;99770.95;105176;1266;106968;-73
2024/03/20 07:55:50;;;;;;;25.60;13.40;;;;;;;3.99;69.51;99766.10;105394;1256;98037;-72
2024/03/20 07:58:18;;;;;;;30.80;14.40;;;;;;;4.06;69.52;99770.98;105349;1266;99183;-73
2024/03/20 08:00:46;;;;;;;30.60;15.70;;;;;;;4.09;69.32;99770.13;105353;1257;112133;-73
2024/03/20 08:03:14;;;;;;;34.60;17.30;;;;;;;4.13;69.36;99770.72;105366;1266;97929;-75
2024/03/20 08:05:41;;;;;;;31.30;15.70;;;;;;;4.15;69.32;99773.63;105244;1257;107748;-73
2024/03/20 08:08:09;;;;;;;35.60;18.60;;;;;;;4.18;69.44;99775.27;105578;1257;99285;-71
2024/03/20 08:10:36;;;;;;;27.40;14.80;;;;;;;4.22;69.36;99773.40;105176;1258;98011;-72
2024/03/20 08:13:05;;;;;;;27.40;13.90;;;;;;;4.26;69.50;99772.71;105207;1266;111127;-73
2024/03/20 08:15:32;;;;;;;33.10;16.60;;;;;;;4.31;69.38;99770.26;105528;1255;97907;-72
2024/03/20 08:18:00;;;;;;;29.70;15.50;;;;;;;4.37;69.43;99769.86;105506;1266;107651;-72
2024/03/20 08:20:29;;;;;;;31.60;15.70;;;;;;;4.46;69.63;99774.66;105179;1257;97935;-72
2024/03/20 08:22:57;;;;;;;26.80;14.80;;;;;;;4.48;69.34;99774.93;105524;1257;97872;-73
2024/03/20 08:25:24;;;;;;;25.20;13.40;;;;;;;4.53;69.48;99766.83;105258;1254;111143;-73
2024/03/20 08:27:52;;;;;;;26.60;14.40;;;;;;;4.60;69.51;99765.36;105501;1257;98047;-74
2024/03/20 08:30:20;;;;;;;31.40;15.70;;;;;;;4.66;69.46;99769.35;105381;1266;107633;-73
2024/03/20 08:32:48;;;;;;;37.30;16.90;;;;;;;4.71;69.47;99770.55;105300;1266;98048;-72
2024/03/20 08:35:17;;;;;;;28.50;14.70;;;;;;;4.75;69.39;99771.30;105307;1260;98047;-74
2024/03/20 08:37:44;;;;;;;29.40;14.60;;;;;;;4.82;69.54;99764.73;105342;1266;111342;-71
2024/03/20 08:40:13;;;;;;;21.90;12.40;;;;;;;4.87;69.55;99765.25;105224;1257;97957;-74
2024/03/20 08:42:42;;;;;;;23.90;12.40;;;;;;;4.93;69.56;99764.65;105506;1257;107104;-72
2024/03/20 08:45:10;;;;;;;25.70;13.50;;;;;;;5.00;69.66;99764.77;105389;1255;98002;-73
2024/03/20 08:47:38;;;;;;;27.10;12.20;;;;;;;5.04;69.35;99761.96;105638;1258;98047;-73
2024/03/20 08:50:07;;;;;;;26.40;12.40;;;;;;;5.06;69.42;99762.39;105404;1256;111202;-73
2024/03/20 08:52:35;;;;;;;23.10;11.70;;;;;;;5.09;69.48;99759.81;105381;1266;97954;-74
2024/03/20 08:55:05;;;;;;;21.60;11.40;;;;;;;5.10;69.27;99759.10;105377;1257;107612;-74
2024/03/20 08:57:33;;;;;;;23.00;12.40;;;;;;;5.11;69.49;99759.91;105363;1256;98338;-72
2024/03/20 09:00:06;;;;;;;20.50;11.30;;;;;;;5.15;69.43;99766.45;105499;1254;98872;-74
2024/03/20 09:02:33;;;;;;;21.90;12.10;;;;;;;5.17;69.30;99765.16;105540;1254;111088;-74
2024/03/20 09:05:01;;;;;;;21.80;13.10;;;;;;;5.17;69.46;99760.38;105351;1258;97964;-74
2024/03/20 09:07:29;;;;;;;28.60;13.20;;;;;;;5.20;69.19;99760.98;105188;1266;107638;-73
2024/03/20 09:09:56;;;;;;;26.00;12.80;;;;;;;5.23;69.39;99761.23;105041;1266;98877;-73
2024/03/20 09:12:24;;;;;;;27.10;13.20;;;;;;;5.22;69.22;99766.54;105460;1256;98019;-74
2024/03/20 09:14:51;;;;;;;20.10;11.50;;;;;;;5.25;69.39;99765.38;105419;1254;109522;-74
2024/03/20 09:17:20;;;;;;;18.40;10.40;;;;;;;5.28;69.32;99771.77;105504;1254;97976;-74
2024/03/20 09:19:48;;;;;;;20.80;12.70;;;;;;;5.27;69.24;99773.20;105140;1266;107136;-73
2024/03/20 09:22:15;;;;;;;17.50;10.70;;;;;;;5.24;69.22;99769.77;105488;1275;98024;-73
2024/03/20 09:24:45;;;;;;;20.50;10.90;;;;;;;5.22;69.19;99769.52;105360;1256;97951;-73
2024/03/20 09:27:12;;;;;;;20.00;11.40;;;;;;;5.22;69.33;99766.18;105453;1257;111279;-73
2024/03/20 09:29:41;;;;;;;19.60;10.60;;;;;;;5.25;69.33;99764.83;105512;1254;98253;-72
2024/03/20 09:32:09;;;;;;;19.10;10.90;;;;;;;5.28;69.37;99765.42;105176;1257;107611;-73
2024/03/20 09:34:39;;;;;;;20.90;11.20;;;;;;;5.28;69.35;99762.95;105429;1256;98002;-74
2024/03/20 09:37:07;;;;;;;18.10;10.50;;;;;;;5.30;69.45;99761.28;105168;1258;98327;-73
2024/03/20 09:39:35;;;;;;;21.90;11.80;;;;;;;5.31;69.15;99758.11;105437;1255;111298;-73
2024/03/20 09:42:03;;;;;;;21.00;12.10;;;;;;;5.33;69.30;99758.02;105615;1257;99203;-74
2024/03/20 09:44:30;;;;;;;21.30;11.40;;;;;;;5.33;69.11;99756.58;105390;1254;107643;-73
2024/03/20 09:47:00;;;;;;;20.20;12.70;;;;;;;5.35;69.28;99755.45;105454;1258;98876;-74
2024/03/20 09:49:28;;;;;;;21.50;12.70;;;;;;;5.40;69.17;99753.20;105316;1257;97950;-73
2024/03/20 09:51:55;;;;;;;22.80;13.10;;;;;;;5.42;69.26;99750.97;105421;1257;111342;-74
2024/03/20 09:54:25;;;;;;;23.80;13.20;;;;;;;5.43;69.25;99750.95;105454;1256;97961;-73
2024/03/20 09:56:53;;;;;;;22.50;11.90;;;;;;;5.41;69.24;99746.09;105425;1253;107193;-75
2024/03/20 09:59:20;;;;;;;23.10;12.30;;;;;;;5.43;69.25;99743.03;105253;1253;99273;-72
2024/03/20 10:01:48;;;;;;;16.30;10.00;;;;;;;5.50;69.20;99741.16;105584;1256;97890;-72
2024/03/20 10:04:16;;;;;;;18.80;10.70;;;;;;;5.55;69.16;99740.75;105160;1257;111327;-74
2024/03/20 10:06:43;;;;;;;21.90;10.90;;;;;;;5.59;69.24;99738.52;105243;1257;97865;-73
2024/03/20 10:09:16;;;;;;;22.10;11.40;;;;;;;5.64;69.25;99738.11;105307;1254;107712;-72
2024/03/20 10:11:44;;;;;;;23.20;12.90;;;;;;;5.74;69.22;99735.95;105270;1257;97964;-74
2024/03/20 10:14:12;;;;;;;23.10;11.70;;;;;;;5.80;69.15;99731.98;105348;1259;97958;-73
2024/03/20 10:16:40;;;;;;;22.50;11.60;;;;;;;5.88;69.31;99732.70;105321;1254;110958;-72
2024/03/20 10:19:12;;;;;;;22.30;11.60;;;;;;;5.97;69.21;99729.34;105472;1266;98044;-73
2024/03/20 10:21:43;;;;;;;20.90;11.30;;;;;;;6.03;69.13;99732.29;105356;1258;107174;-73
2024/03/20 10:24:16;;;;;;;27.00;13.40;;;;;;;6.05;69.09;99730.81;105331;1260;99209;-74
2024/03/20 10:26:43;;;;;;;18.20;9.90;;;;;;;6.05;69.15;99729.20;105240;1260;98744;-74
2024/03/20 10:29:13;;;;;;;17.80;11.00;;;;;;;6.09;69.11;99727.82;105479;1255;110741;-73
2024/03/20 10:31:49;;;;;;;22.80;12.00;;;;;;;6.14;68.98;99726.37;105384;1273;98038;-72
2024/03/20 10:34:18;;;;;;;20.20;10.70;;;;;;;6.15;69.07;99723.14;105410;1257;107578;-74
2024/03/20 10:36:46;;;;;;;17.50;10.10;;;;;;;6.17;68.84;99720.07;105260;1258;97963;-74
2024/03/20 10:39:17;;;;;;;20.20;10.90;;;;;;;6.21;68.94;99726.42;105436;1254;97961;-73
2024/03/20 10:41:54;;;;;;;23.90;10.40;;;;;;;6.24;68.82;99725.23;105744;1256;111262;-74
2024/03/20 10:44:23;;;;;;;18.90;10.40;;;;;;;6.26;69.07;99723.00;105244;1254;97986;-72
2024/03/20 10:46:52;;;;;;;19.00;11.80;;;;;;;6.30;68.88;99725.31;105218;1254;105487;-74
2024/03/20 10:49:22;;;;;;;19.50;11.90;;;;;;;6.35;68.92;99718.20;105390;1266;98074;-76
2024/03/20 10:51:52;;;;;;;23.90;12.20;;;;;;;6.39;68.96;99718.73;105263;1255;97966;-74
2024/03/20 10:54:20;;;;;;;17.50;9.90;;;;;;;6.45;68.86;99722.54;105417;1256;110861;-73
2024/03/20 10:56:50;;;;;;;20.90;10.40;;;;;;;6.47;68.83;99717.51;105340;1257;97958;-74
2024/03/20 10:59:19;;;;;;;24.90;13.70;;;;;;;6.49;68.82;99717.03;105293;1257;108501;-75
2024/03/20 11:03:50;;;;;;;18.90;10.90;;;;;;;6.57;69.01;99710.70;102670;1285;636482;-72
2024/03/20 11:06:38;;;;;;;18.80;10.00;;;;;;;6.59;68.94;99712.92;104671;1269;95386;-71
2024/03/20 11:09:06;;;;;;;17.70;9.90;;;;;;;6.61;68.92;99702.06;104368;1267;95278;-74
2024/03/20 11:11:34;;;;;;;20.20;11.30;;;;;;;6.60;68.87;99701.77;104634;1266;108609;-73
2024/03/20 11:14:07;;;;;;;18.80;10.00;;;;;;;6.58;68.77;99699.73;104302;1269;95525;-76
2024/03/20 11:16:38;;;;;;;17.30;10.50;;;;;;;6.58;68.80;99696.75;104761;1263;165475;-73
2024/03/20 11:19:09;;;;;;;19.30;10.60;;;;;;;6.56;68.69;99694.00;105057;1257;95252;-73
2024/03/20 11:21:36;;;;;;;16.40;9.90;;;;;;;6.60;68.82;99691.00;104882;1263;95180;-73